Kahlotus, Washington
Current Conditions -  °F | °C
As of 3:53 AM on Sunday 25 Jan 2015 (Local Time) from KPSC Reporting Station
Haze Haze  
Wind Chill: 25°   Ceiling: Unl
Heat Index: 30°   Visibility: 6mi
Dew Point: 30°   Wind: 5mph
Humidity: 100%   Direction: 340°NNW
Pressure: 30.27"   Gusts: NA
Location:  46.64°N, 118.56°W
Report Text: KPSC 251153Z AUTO 34004KT 6SM BR CLR M01/M01 A3027 RMK AO2 SLP253 T10111011 10017 21011 50000
Loading
Personal Weather Stations






























Interactive Weather Map New forecast layout! Learn more

10-Day Weather Forecast

Advertisements
Track Severe Weather on mobile